Time;durP1;ratioP1;P1;durP2;ratioP2;P2;SDS_P1;SDS_P2;PMS_P1;PMS_P2;Temp;Humidity;BMP_temperature;BMP_pressure;BME280_temperature;BME280_humidity;BME280_pressure;Samples;Min_cycle;Max_cycle;Signal;HPM_P1;HPM_P2
2022/12/06 00:01:42;;;;;;;4.22;2.60;;;2.20;99.90;;;;;;5076233;28;20036;-73
2022/12/06 00:04:10;;;;;;;6.63;2.77;;;2.20;99.90;;;;;;5058675;28;20353;-73
2022/12/06 00:06:46;;;;;;;3.70;1.67;;;2.20;99.90;;;;;;5075736;28;20021;-72
2022/12/06 00:09:25;;;;;;;3.63;1.73;;;2.20;99.90;;;;;;5058222;28;20071;-73
2022/12/06 00:11:51;;;;;;;2.58;1.67;;;2.10;99.90;;;;;;5058725;28;20027;-72
2022/12/06 00:14:17;;;;;;;3.97;1.50;;;2.20;99.90;;;;;;5076669;28;20033;-73
2022/12/06 00:16:43;;;;;;;2.30;1.55;;;2.20;99.90;;;;;;5076151;28;20029;-73
2022/12/06 00:19:12;;;;;;;3.55;1.13;;;2.20;99.90;;;;;;5075429;28;20029;-73
2022/12/06 00:21:38;;;;;;;2.70;1.52;;;2.20;99.90;;;;;;5059251;28;20491;-73
2022/12/06 00:24:11;;;;;;;0.90;0.70;;;2.20;99.90;;;;;;5076157;28;20059;-72
2022/12/06 00:26:39;;;;;;;1.45;0.85;;;2.20;99.90;;;;;;5057672;28;20024;-72
2022/12/06 00:29:07;;;;;;;0.30;0.30;;;2.30;99.90;;;;;;5041090;28;20043;-73
2022/12/06 00:31:34;;;;;;;2.05;0.40;;;2.40;99.90;;;;;;5074800;28;20313;-72
2022/12/06 00:34:00;;;;;;;0.30;0.30;;;2.40;99.90;;;;;;5056938;28;20033;-72
2022/12/06 00:36:32;;;;;;;1.00;0.47;;;2.50;99.90;;;;;;5056980;28;20024;-72
2022/12/06 00:38:59;;;;;;;1.67;0.70;;;2.50;99.90;;;;;;5075134;28;20029;-72
2022/12/06 00:41:26;;;;;;;0.38;0.38;;;2.50;99.90;;;;;;5074770;28;20082;-72
2022/12/06 00:43:52;;;;;;;0.80;0.80;;;2.60;99.90;;;;;;5074664;28;20372;-72
2022/12/06 00:46:20;;;;;;;1.90;0.80;;;2.60;99.90;;;;;;5074458;28;20464;-72
2022/12/06 00:48:47;;;;;;;0.90;0.70;;;2.60;99.90;;;;;;5074830;28;20020;-73
2022/12/06 00:51:14;;;;;;;2.55;1.00;;;2.70;99.90;;;;;;5074774;28;20033;-72
2022/12/06 00:53:40;;;;;;;1.02;0.85;;;2.70;99.90;;;;;;5056732;28;20051;-72
2022/12/06 00:56:07;;;;;;;0.55;0.55;;;2.70;99.90;;;;;;5056911;28;20388;-71
2022/12/06 00:58:32;;;;;;;1.20;1.05;;;2.70;99.90;;;;;;5074411;28;20035;-72
2022/12/06 01:01:15;;;;;;;0.77;0.77;;;2.70;99.90;;;;;;5056554;28;20029;-72
2022/12/06 01:03:42;;;;;;;0.80;0.80;;;2.80;99.90;;;;;;5056451;28;20103;-72
2022/12/06 01:06:11;;;;;;;0.90;0.90;;;2.80;99.90;;;;;;5056588;28;20376;-72
2022/12/06 01:08:38;;;;;;;0.88;0.80;;;2.80;99.90;;;;;;5056294;28;20071;-72
2022/12/06 01:11:04;;;;;;;1.45;1.20;;;2.80;99.90;;;;;;5074288;28;20033;-72
2022/12/06 01:13:29;;;;;;;1.55;0.93;;;2.90;99.90;;;;;;5073864;28;20067;-72
2022/12/06 01:15:56;;;;;;;1.15;1.05;;;2.90;99.90;;;;;;5074427;28;20118;-72
2022/12/06 01:18:22;;;;;;;2.60;1.17;;;2.90;99.90;;;;;;5056289;28;20031;-72
2022/12/06 01:20:48;;;;;;;0.90;0.90;;;2.90;99.90;;;;;;5056596;28;20020;-72
2022/12/06 01:23:14;;;;;;;1.10;0.90;;;2.90;99.90;;;;;;5057896;28;20092;-72
2022/12/06 01:25:50;;;;;;;0.77;0.77;;;2.90;99.90;;;;;;5061675;28;20028;-72
2022/12/06 01:28:15;;;;;;;1.38;1.00;;;2.90;99.90;;;;;;5062112;28;20036;-71
2022/12/06 01:30:41;;;;;;;1.23;1.15;;;2.90;99.90;;;;;;5061566;28;20028;-71
2022/12/06 01:33:07;;;;;;;1.02;1.00;;;2.90;99.90;;;;;;5078834;28;20499;-71
2022/12/06 01:35:32;;;;;;;1.95;1.08;;;2.90;99.90;;;;;;5078626;28;20029;-71
2022/12/06 01:37:58;;;;;;;1.08;1.02;;;3.00;99.90;;;;;;5061370;28;20074;-71
2022/12/06 01:40:23;;;;;;;0.88;0.88;;;3.00;99.90;;;;;;5077457;28;20021;-71
2022/12/06 01:42:49;;;;;;;1.30;1.20;;;3.10;99.90;;;;;;5057507;28;20036;-71
2022/12/06 01:45:15;;;;;;;1.00;1.00;;;3.00;99.90;;;;;;5058805;28;20032;-70
2022/12/06 01:47:42;;;;;;;0.70;0.70;;;3.10;99.90;;;;;;5076286;28;20036;-71
2022/12/06 01:50:11;;;;;;;1.75;0.93;;;3.10;99.90;;;;;;5075205;28;20025;-71
2022/12/06 01:52:58;;;;;;;1.10;1.00;;;3.10;99.90;;;;;;5056240;28;20033;-71
2022/12/06 01:55:27;;;;;;;1.50;0.85;;;3.20;99.90;;;;;;5074264;28;20455;-71
2022/12/06 01:57:57;;;;;;;1.80;1.17;;;3.10;99.90;;;;;;5074067;28;20024;-70
2022/12/06 02:00:23;;;;;;;0.60;0.60;;;3.20;99.90;;;;;;5074083;28;20384;-70
2022/12/06 02:02:48;;;;;;;0.82;0.82;;;3.20;99.90;;;;;;5074016;28;20374;-70
2022/12/06 02:05:16;;;;;;;1.08;0.65;;;3.20;99.90;;;;;;5074030;28;20021;-70
2022/12/06 02:07:43;;;;;;;0.60;0.60;;;3.20;99.90;;;;;;5055816;28;20487;-70
2022/12/06 02:10:09;;;;;;;0.80;0.80;;;3.20;99.90;;;;;;5055861;28;20055;-70
2022/12/06 02:12:35;;;;;;;0.88;0.60;;;3.20;99.90;;;;;;5074030;28;20039;-70
2022/12/06 02:15:01;;;;;;;0.70;0.70;;;3.20;99.90;;;;;;5073999;28;20033;-69
2022/12/06 02:17:43;;;;;;;0.35;0.35;;;3.10;99.90;;;;;;5055668;28;20067;-69
2022/12/06 02:20:15;;;;;;;0.45;0.45;;;3.20;99.90;;;;;;5055626;28;20028;-69
2022/12/06 02:23:11;;;;;;;0.30;0.30;;;3.20;99.90;;;;;;5073564;28;20028;-69
2022/12/06 02:25:43;;;;;;;0.63;0.45;;;3.30;99.90;;;;;;5073890;28;20033;-69
2022/12/06 02:28:30;;;;;;;0.40;0.40;;;3.30;99.90;;;;;;5073820;28;20029;-69
2022/12/06 02:31:03;;;;;;;0.30;0.30;;;3.30;99.90;;;;;;5059137;28;20032;-69
2022/12/06 02:33:38;;;;;;;0.38;0.38;;;3.40;99.90;;;;;;5077131;28;20469;-69
2022/12/06 02:36:11;;;;;;;0.22;0.22;;;3.40;99.90;;;;;;5077423;28;20033;-69
2022/12/06 02:38:36;;;;;;;0.50;0.50;;;3.40;99.90;;;;;;5077771;28;20368;-70
2022/12/06 02:41:15;;;;;;;0.32;0.32;;;3.40;99.90;;;;;;5077557;28;20020;-69
2022/12/06 02:43:44;;;;;;;0.30;0.30;;;3.30;99.90;;;;;;5077843;28;20089;-69
2022/12/06 02:46:13;;;;;;;0.30;0.30;;;3.40;99.90;;;;;;5059095;28;20033;-69
2022/12/06 02:48:40;;;;;;;0.60;0.40;;;3.40;99.90;;;;;;5059371;28;20025;-69
2022/12/06 02:51:11;;;;;;;0.95;0.50;;;3.50;99.90;;;;;;5058888;28;20037;-69
2022/12/06 02:53:41;;;;;;;0.40;0.40;;;3.50;99.90;;;;;;5059257;28;20024;-68
2022/12/06 02:56:07;;;;;;;0.30;0.30;;;3.60;99.90;;;;;;5076940;28;20115;-68
2022/12/06 02:58:36;;;;;;;0.35;0.35;;;3.60;99.90;;;;;;5058838;28;20024;-69
2022/12/06 03:01:05;;;;;;;1.67;0.55;;;3.60;99.90;;;;;;5058646;28;20025;-68
2022/12/06 03:03:49;;;;;;;0.50;0.50;;;3.60;99.90;;;;;;5059178;28;20089;-68
2022/12/06 03:06:49;;;;;;;0.40;0.40;;;3.60;99.90;;;;;;5076523;28;20071;-68
2022/12/06 03:09:26;;;;;;;0.30;0.30;;;3.70;99.90;;;;;;5076280;28;20059;-68
2022/12/06 03:12:15;;;;;;;0.50;0.50;;;3.60;99.90;;;;;;5058485;28;20032;-69
2022/12/06 03:14:47;;;;;;;0.93;0.68;;;3.60;99.90;;;;;;5076150;28;20025;-68
2022/12/06 03:17:15;;;;;;;0.50;0.50;;;3.70;99.90;;;;;;5076336;28;20020;-68
2022/12/06 03:19:42;;;;;;;0.38;0.38;;;3.60;99.90;;;;;;5076365;28;20099;-68
2022/12/06 03:22:32;;;;;;;0.73;0.73;;;3.70;99.90;;;;;;5059131;28;20360;-68
2022/12/06 03:24:59;;;;;;;1.42;0.90;;;3.70;99.90;;;;;;5057606;28;20036;-69
2022/12/06 03:27:27;;;;;;;0.90;0.90;;;3.60;99.90;;;;;;5075870;28;20032;-69
2022/12/06 03:29:57;;;;;;;1.10;1.00;;;3.70;99.90;;;;;;5076089;28;20029;-68
2022/12/06 03:32:26;;;;;;;1.45;1.35;;;3.70;99.90;;;;;;5076326;28;20081;-68
2022/12/06 03:34:53;;;;;;;;;;;3.70;99.90;;;;;;5076137;28;20532;-68
2022/12/06 03:37:24;;;;;;;1.45;1.35;;;3.70;99.90;;;;;;5076013;28;19904;-68
2022/12/06 03:40:10;;;;;;;1.50;1.40;;;3.70;99.90;;;;;;5075773;28;20468;-68
2022/12/06 03:42:36;;;;;;;1.80;1.67;;;3.70;99.90;;;;;;5076049;28;20058;-68
2022/12/06 03:45:03;;;;;;;4.45;2.22;;;3.70;99.90;;;;;;5078744;28;20380;-70
2022/12/06 03:47:32;;;;;;;2.00;1.80;;;3.70;99.90;;;;;;5080869;28;20064;-69
2022/12/06 03:50:12;;;;;;;2.20;2.00;;;3.70;99.90;;;;;;5062969;28;20088;-68
2022/12/06 03:52:38;;;;;;;2.80;2.00;;;3.70;99.90;;;;;;5059691;28;20393;-68
2022/12/06 03:55:04;;;;;;;2.00;1.90;;;3.70;99.90;;;;;;5077030;28;20028;-68
2022/12/06 03:57:30;;;;;;;2.40;2.20;;;3.70;99.90;;;;;;5058143;28;20032;-68
2022/12/06 03:59:56;;;;;;;2.03;1.70;;;3.80;99.90;;;;;;5076161;28;20024;-72
2022/12/06 04:02:21;;;;;;;1.55;1.45;;;3.80;99.90;;;;;;5057992;28;20056;-68
2022/12/06 04:04:48;;;;;;;1.55;1.48;;;3.80;99.90;;;;;;5075392;28;20027;-68
2022/12/06 04:07:14;;;;;;;2.95;1.70;;;3.80;99.90;;;;;;5057508;28;20029;-68
2022/12/06 04:09:51;;;;;;;1.60;1.50;;;3.80;99.90;;;;;;5075638;28;20056;-69
2022/12/06 04:15:04;;;;;;;1.50;1.40;;;3.90;99.90;;;;;;5075412;28;20043;-68
2022/12/06 04:20:13;;;;;;;2.42;1.60;;;4.00;99.90;;;;;;5075174;28;20040;-69
2022/12/06 04:25:23;;;;;;;1.88;1.77;;;4.00;99.90;;;;;;5075249;28;20040;-69
2022/12/06 04:38:45;;;;;;;1.67;1.58;;;4.10;99.90;;;;;;5074904;28;20048;-69
2022/12/06 04:43:40;;;;;;;1.60;1.50;;;4.10;99.90;;;;;;5074885;28;20024;-69
2022/12/06 04:43:58;;;;;;;1.52;1.42;;;4.10;99.90;;;;;;5074810;28;20452;-70
2022/12/06 04:46:23;;;;;;;1.48;1.40;;;4.10;99.90;;;;;;5074769;28;20142;-70
2022/12/06 04:48:49;;;;;;;1.60;1.27;;;4.10;99.90;;;;;;5056590;28;20055;-69
2022/12/06 04:51:15;;;;;;;0.93;0.93;;;4.20;99.90;;;;;;5073991;28;20025;-70
2022/12/06 04:53:41;;;;;;;1.05;1.05;;;4.20;99.90;;;;;;5056411;28;20490;-69
2022/12/06 04:56:07;;;;;;;1.63;1.02;;;4.20;99.90;;;;;;5074532;28;20031;-69
2022/12/06 04:58:33;;;;;;;0.90;0.90;;;4.30;99.90;;;;;;5056485;28;20388;-69
2022/12/06 05:00:58;;;;;;;0.90;0.90;;;4.30;99.90;;;;;;5074779;28;20067;-70
2022/12/06 05:03:24;;;;;;;0.70;0.70;;;4.30;99.90;;;;;;5074870;28;20037;-69
2022/12/06 05:05:50;;;;;;;1.10;1.10;;;4.30;99.90;;;;;;5074118;28;20035;-70
2022/12/06 05:08:16;;;;;;;1.23;0.95;;;4.30;99.90;;;;;;5074068;28;20044;-70
2022/12/06 05:10:46;;;;;;;2.28;0.90;;;4.30;99.90;;;;;;5056511;28;20059;-69
2022/12/06 05:13:12;;;;;;;0.90;0.90;;;4.30;99.90;;;;;;5074124;28;20029;-69
2022/12/06 05:15:38;;;;;;;1.23;1.15;;;4.30;99.90;;;;;;5074183;28;20052;-69
2022/12/06 05:18:04;;;;;;;1.42;1.35;;;4.30;99.90;;;;;;5074101;28;20032;-69
2022/12/06 05:20:29;;;;;;;0.95;0.95;;;4.20;99.90;;;;;;5074141;28;20028;-69
2022/12/06 05:22:55;;;;;;;2.03;0.98;;;4.30;99.90;;;;;;5056395;28;20043;-69
2022/12/06 05:25:21;;;;;;;0.93;0.90;;;4.30;99.90;;;;;;5074303;28;20134;-69
2022/12/06 05:27:47;;;;;;;0.80;0.80;;;4.20;99.90;;;;;;5056008;28;20029;-68
2022/12/06 05:30:12;;;;;;;3.15;1.00;;;4.20;99.90;;;;;;5055955;28;20074;-69
2022/12/06 05:32:39;;;;;;;1.13;1.05;;;4.30;99.90;;;;;;5055772;28;20029;-69
2022/12/06 05:35:06;;;;;;;1.02;1.02;;;4.20;99.90;;;;;;5073927;28;20043;-68
2022/12/06 05:37:31;;;;;;;2.20;1.30;;;4.30;99.90;;;;;;5056084;28;20361;-70
2022/12/06 05:39:57;;;;;;;1.50;0.98;;;4.20;99.90;;;;;;5055748;28;20027;-70
2022/12/06 05:42:23;;;;;;;1.60;1.50;;;4.20;99.90;;;;;;5056052;28;20032;-70
2022/12/06 05:44:48;;;;;;;1.05;0.95;;;4.20;99.90;;;;;;5074048;28;20101;-70
2022/12/06 05:47:14;;;;;;;2.17;1.45;;;4.30;99.90;;;;;;5077269;28;20025;-70
2022/12/06 05:49:39;;;;;;;1.60;1.50;;;4.30;99.90;;;;;;5079366;28;20028;-70
2022/12/06 05:52:06;;;;;;;1.50;1.30;;;4.20;99.90;;;;;;5077545;28;20539;-69
2022/12/06 05:54:32;;;;;;;2.33;1.80;;;4.30;99.90;;;;;;5076670;28;20033;-69
2022/12/06 05:56:57;;;;;;;1.98;1.73;;;4.20;99.90;;;;;;5075449;28;20033;-70
2022/12/06 05:59:23;;;;;;;2.03;1.70;;;4.20;99.90;;;;;;5057554;28;20027;-71
2022/12/06 06:01:49;;;;;;;3.22;2.30;;;4.20;99.90;;;;;;5076433;28;20456;-70
2022/12/06 06:04:14;;;;;;;2.65;2.42;;;4.20;99.90;;;;;;5061369;28;20387;-70
2022/12/06 06:06:40;;;;;;;2.85;2.58;;;4.20;99.90;;;;;;5081664;28;20028;-71
2022/12/06 06:09:05;;;;;;;3.00;2.20;;;4.20;99.90;;;;;;5079610;28;20048;-70
2022/12/06 06:11:31;;;;;;;2.40;2.20;;;4.20;99.90;;;;;;5078399;28;20047;-70
2022/12/06 06:13:58;;;;;;;4.38;2.40;;;4.20;99.90;;;;;;5078726;28;20056;-71
2022/12/06 06:16:23;;;;;;;2.70;2.08;;;4.20;99.90;;;;;;5079894;28;20028;-71
2022/12/06 06:18:49;;;;;;;2.40;2.20;;;4.10;99.90;;;;;;5079939;28;20518;-71
2022/12/06 06:21:15;;;;;;;2.35;2.15;;;4.10;99.90;;;;;;5080359;28;20055;-71
2022/12/06 06:23:40;;;;;;;3.25;2.38;;;4.10;99.90;;;;;;5079289;28;20025;-71
2022/12/06 06:26:10;;;;;;;4.60;2.30;;;4.20;99.90;;;;;;5079440;28;20039;-70
2022/12/06 06:28:37;;;;;;;2.92;2.63;;;4.10;99.90;;;;;;5078756;28;20024;-71
2022/12/06 06:31:06;;;;;;;6.30;2.35;;;4.10;99.90;;;;;;5078916;28;20054;-70
2022/12/06 06:33:32;;;;;;;3.15;2.42;;;4.10;99.90;;;;;;5078100;28;20169;-70
2022/12/06 06:35:59;;;;;;;2.83;2.30;;;4.10;99.90;;;;;;5060369;28;20486;-71
2022/12/06 06:38:24;;;;;;;2.88;2.40;;;4.00;99.90;;;;;;5077562;28;20036;-71
2022/12/06 06:40:50;;;;;;;2.25;2.05;;;4.10;99.90;;;;;;5078196;28;20031;-70
2022/12/06 06:43:19;;;;;;;3.00;2.70;;;4.10;99.90;;;;;;5077079;28;20039;-71
2022/12/06 06:45:52;;;;;;;2.10;1.95;;;4.10;99.90;;;;;;5077178;28;20047;-70
2022/12/06 06:48:18;;;;;;;2.95;2.63;;;4.10;99.90;;;;;;5059094;28;20028;-71
2022/12/06 06:50:44;;;;;;;3.35;3.03;;;4.00;99.90;;;;;;5059919;28;20469;-71
2022/12/06 06:53:10;;;;;;;2.60;2.40;;;4.00;99.90;;;;;;5077037;28;20075;-70
2022/12/06 06:55:36;;;;;;;3.78;3.13;;;4.00;99.90;;;;;;5077196;28;20032;-71
2022/12/06 06:58:02;;;;;;;7.95;3.60;;;4.00;99.90;;;;;;5077715;28;20025;-71
2022/12/06 07:00:28;;;;;;;5.35;3.25;;;3.90;99.90;;;;;;5059013;28;20472;-71
2022/12/06 07:02:53;;;;;;;6.50;3.45;;;3.80;99.90;;;;;;5059684;28;20052;-71
2022/12/06 07:05:19;;;;;;;4.03;2.92;;;3.80;99.90;;;;;;5059703;28;20029;-71
2022/12/06 07:07:45;;;;;;;4.32;3.03;;;3.70;99.90;;;;;;5059282;28;20499;-70
2022/12/06 07:10:11;;;;;;;6.03;3.17;;;3.70;99.90;;;;;;5058958;28;20106;-70
2022/12/06 07:12:38;;;;;;;4.22;3.78;;;3.60;99.90;;;;;;5058503;28;20036;-70
2022/12/06 07:15:05;;;;;;;4.35;2.92;;;3.60;99.90;;;;;;5058279;28;20029;-70
2022/12/06 07:17:30;;;;;;;6.97;3.85;;;3.50;99.90;;;;;;5058425;28;20380;-70
2022/12/06 07:19:56;;;;;;;5.53;4.25;;;3.50;99.90;;;;;;5076498;28;20032;-69
2022/12/06 07:22:21;;;;;;;6.30;3.92;;;3.50;99.90;;;;;;5076178;28;20202;-72
2022/12/06 07:24:47;;;;;;;9.13;4.00;;;3.50;99.90;;;;;;5076310;28;20418;-72
2022/12/06 07:27:13;;;;;;;6.40;4.07;;;3.50;99.90;;;;;;5076579;28;20025;-72
2022/12/06 07:29:38;;;;;;;6.35;4.20;;;3.60;99.90;;;;;;5076461;28;20028;-72
2022/12/06 07:32:04;;;;;;;6.00;3.60;;;3.50;99.90;;;;;;5076110;28;20024;-72
2022/12/06 07:34:30;;;;;;;4.40;3.42;;;3.60;99.90;;;;;;5058108;28;20024;-72
2022/12/06 07:36:55;;;;;;;5.40;3.47;;;3.60;99.90;;;;;;5076112;28;20040;-72
2022/12/06 07:39:21;;;;;;;7.75;3.65;;;3.60;99.90;;;;;;5076047;28;20021;-72
2022/12/06 07:47:15;;;;;;;7.03;3.80;;;3.60;99.90;;;;;;5075907;28;20044;-73
2022/12/06 07:49:41;;;;;;;6.20;4.00;;;3.60;99.90;;;;;;5057845;28;20024;-73
2022/12/06 07:52:07;;;;;;;5.47;4.18;;;3.70;99.90;;;;;;5057476;28;20104;-72
2022/12/06 07:54:33;;;;;;;6.85;4.63;;;3.70;99.90;;;;;;5058098;28;20040;-72
2022/12/06 07:56:58;;;;;;;4.47;3.58;;;3.70;99.90;;;;;;5075560;28;20103;-72
2022/12/06 07:59:24;;;;;;;5.95;4.05;;;3.70;99.90;;;;;;5057844;28;20415;-72
2022/12/06 08:01:51;;;;;;;8.88;3.97;;;3.70;99.90;;;;;;5075793;28;20032;-72
2022/12/06 08:04:17;;;;;;;4.43;3.55;;;3.70;99.90;;;;;;5061358;28;20033;-73
2022/12/06 08:06:43;;;;;;;4.20;3.47;;;3.70;99.90;;;;;;5079519;28;20099;-73
2022/12/06 08:09:09;;;;;;;7.28;3.40;;;3.70;99.90;;;;;;5077914;28;20071;-72
2022/12/06 08:11:35;;;;;;;7.13;3.95;;;3.70;99.90;;;;;;5076780;28;20365;-72
2022/12/06 08:14:02;;;;;;;4.07;3.63;;;3.70;99.90;;;;;;5075908;28;20531;-72
2022/12/06 08:16:28;;;;;;;5.43;3.60;;;3.70;99.90;;;;;;5059762;28;20021;-72
2022/12/06 08:18:54;;;;;;;10.05;4.18;;;3.60;99.90;;;;;;5077710;28;20467;-73
2022/12/06 08:21:20;;;;;;;8.45;4.07;;;3.70;99.90;;;;;;5059022;28;20025;-72
2022/12/06 08:23:46;;;;;;;9.10;3.85;;;3.70;99.90;;;;;;5077198;28;20460;-73
2022/12/06 08:26:15;;;;;;;5.60;4.05;;;3.70;99.90;;;;;;5057818;28;20060;-72
2022/12/06 08:28:42;;;;;;;4.15;3.28;;;3.70;99.90;;;;;;5075704;28;20025;-72
2022/12/06 08:31:14;;;;;;;5.32;3.60;;;3.70;99.90;;;;;;5075637;28;20028;-72
2022/12/06 08:33:40;;;;;;;4.20;2.95;;;3.70;99.90;;;;;;5057430;28;20063;-72
2022/12/06 08:36:11;;;;;;;8.48;3.70;;;3.70;99.90;;;;;;5058558;28;20473;-72
2022/12/06 08:38:37;;;;;;;5.82;3.38;;;3.70;99.90;;;;;;5075945;28;20024;-72
2022/12/06 08:41:04;;;;;;;3.70;3.10;;;3.70;99.90;;;;;;5057698;28;20035;-72
2022/12/06 08:43:30;;;;;;;4.22;3.30;;;3.70;99.90;;;;;;5057115;28;20388;-72
2022/12/06 08:45:56;;;;;;;3.78;3.33;;;3.70;99.90;;;;;;5074966;28;20032;-72
2022/12/06 08:48:22;;;;;;;5.47;3.08;;;3.70;99.90;;;;;;5056979;28;20024;-72
2022/12/06 08:50:47;;;;;;;5.68;3.15;;;3.70;99.90;;;;;;5057096;28;20073;-72
2022/12/06 08:53:13;;;;;;;6.05;4.22;;;3.70;99.90;;;;;;5075209;28;20119;-72
2022/12/06 08:55:40;;;;;;;6.88;4.30;;;3.70;99.90;;;;;;5057411;28;20178;-72
2022/12/06 08:58:06;;;;;;;6.13;4.47;;;3.70;99.90;;;;;;5075622;28;20537;-72
2022/12/06 09:00:32;;;;;;;5.93;4.28;;;3.70;99.90;;;;;;5058416;28;20106;-73
2022/12/06 09:02:57;;;;;;;6.68;4.57;;;3.70;99.90;;;;;;5077246;28;20029;-72
2022/12/06 09:05:23;;;;;;;7.45;4.35;;;3.70;99.90;;;;;;5076006;28;20021;-72
2022/12/06 09:07:48;;;;;;;6.20;4.78;;;3.70;99.90;;;;;;5075753;28;20032;-72
2022/12/06 09:10:14;;;;;;;5.75;4.55;;;3.70;99.90;;;;;;5074399;28;20052;-73
2022/12/06 09:12:40;;;;;;;8.07;5.20;;;3.70;99.90;;;;;;5074201;28;20032;-73
2022/12/06 09:15:06;;;;;;;5.97;4.65;;;3.70;99.90;;;;;;5056992;28;20353;-72
2022/12/06 09:17:31;;;;;;;7.38;4.93;;;3.70;99.90;;;;;;5074402;28;20548;-73
2022/12/06 09:19:57;;;;;;;10.30;5.47;;;3.70;99.90;;;;;;5057594;28;20107;-73
2022/12/06 09:22:23;;;;;;;8.10;5.25;;;3.70;99.90;;;;;;5074741;28;20024;-73
2022/12/06 09:24:48;;;;;;;7.72;4.82;;;3.70;99.90;;;;;;5078269;28;20025;-73
2022/12/06 09:27:14;;;;;;;7.50;5.03;;;3.80;99.90;;;;;;5080442;28;20032;-72
2022/12/06 09:29:40;;;;;;;6.57;4.38;;;3.70;99.90;;;;;;5063047;28;20035;-73
2022/12/06 09:32:05;;;;;;;8.70;4.85;;;3.80;99.90;;;;;;5080248;28;20024;-73
2022/12/06 09:34:31;;;;;;;6.70;4.60;;;3.80;99.90;;;;;;5079213;28;20025;-73
2022/12/06 09:37:08;;;;;;;6.72;5.05;;;3.80;99.90;;;;;;5060596;28;20487;-72
2022/12/06 09:39:44;;;;;;;8.02;4.75;;;3.80;99.90;;;;;;5059889;28;20067;-73
2022/12/06 09:42:32;;;;;;;7.70;5.03;;;3.80;99.90;;;;;;5078914;28;20028;-73
2022/12/06 09:45:22;;;;;;;7.60;4.38;;;3.90;99.90;;;;;;5024650;28;20032;-73
2022/12/06 09:47:56;;;;;;;5.78;4.30;;;4.00;99.90;;;;;;5078950;28;20426;-73
2022/12/06 09:50:49;;;;;;;5.95;4.38;;;4.00;99.90;;;;;;5059815;28;20032;-73
2022/12/06 09:53:42;;;;;;;8.70;4.72;;;4.00;99.90;;;;;;5077777;28;20044;-73
2022/12/06 09:56:30;;;;;;;10.18;6.10;;;4.00;99.90;;;;;;5060124;28;20017;-73
2022/12/06 09:59:10;;;;;;;8.02;5.00;;;4.10;99.90;;;;;;5079199;28;20032;-73
2022/12/06 10:01:42;;;;;;;10.43;4.70;;;4.20;99.90;;;;;;5061357;28;20029;-73
2022/12/06 10:04:38;;;;;;;8.10;5.00;;;4.20;99.90;;;;;;5062263;28;20029;-73
2022/12/06 10:07:25;;;;;;;7.47;5.43;;;4.30;99.90;;;;;;5078854;28;20029;-73
2022/12/06 10:10:12;;;;;;;7.15;4.60;;;4.40;99.90;;;;;;5060859;28;20381;-74
2022/12/06 10:12:43;;;;;;;9.25;5.63;;;4.50;99.90;;;;;;5061244;28;20037;-73
2022/12/06 10:15:22;;;;;;;7.03;5.40;;;4.60;99.90;;;;;;5058865;28;20032;-73
2022/12/06 10:18:01;;;;;;;;;;;4.70;99.90;;;;;;5080601;28;20082;-73
2022/12/06 10:20:37;;;;;;;10.57;6.05;;;4.80;99.90;;;;;;5080364;28;19908;-73
2022/12/06 10:23:16;;;;;;;9.30;6.10;;;4.80;99.90;;;;;;5061974;28;20082;-73
2022/12/06 10:25:58;;;;;;;11.27;6.57;;;4.80;99.90;;;;;;5079912;28;20020;-73
2022/12/06 10:28:59;;;;;;;9.40;6.38;;;4.80;99.90;;;;;;5061271;28;20024;-73
2022/12/06 10:31:44;;;;;;;15.77;7.78;;;4.90;99.90;;;;;;4961896;28;20030;-73
2022/12/06 10:34:20;;;;;;;10.90;7.38;;;4.90;99.90;;;;;;5070247;28;20044;-73
2022/12/06 10:37:07;;;;;;;13.10;7.90;;;4.90;99.90;;;;;;5076596;28;20452;-73
2022/12/06 10:39:41;;;;;;;13.77;8.88;;;4.80;99.90;;;;;;5076991;28;20480;-73
2022/12/06 10:42:28;;;;;;;16.27;10.45;;;4.80;99.90;;;;;;5076642;28;20100;-73
2022/12/06 10:48:06;;;;;;;;;;;4.80;99.90;;;;;;5075017;28;20044;-73
2022/12/06 10:50:35;;;;;;;19.63;10.80;;;4.70;99.90;;;;;;5077419;28;19927;-72
2022/12/06 10:53:14;;;;;;;18.08;11.35;;;4.70;99.90;;;;;;5061550;28;20028;-73
2022/12/06 10:55:48;;;;;;;21.52;12.75;;;4.60;99.90;;;;;;5062095;28;20037;-73
2022/12/06 10:58:18;;;;;;;22.10;13.63;;;4.60;99.90;;;;;;5061988;28;20024;-73
2022/12/06 11:01:00;;;;;;;26.13;14.40;;;4.70;99.90;;;;;;5078776;28;20060;-73
2022/12/06 11:03:59;;;;;;;21.67;13.10;;;4.60;99.90;;;;;;5060118;28;20032;-73
2022/12/06 11:06:39;;;;;;;23.88;13.00;;;4.60;99.90;;;;;;5078928;28;20111;-73
2022/12/06 11:09:19;;;;;;;24.13;13.40;;;4.70;99.90;;;;;;5079188;28;20392;-73
2022/12/06 11:11:45;;;;;;;22.40;12.13;;;4.70;99.90;;;;;;5080163;28;20024;-73
2022/12/06 11:14:20;;;;;;;20.40;12.07;;;4.70;99.90;;;;;;5076984;28;20531;-72
2022/12/06 11:17:10;;;;;;;22.80;12.50;;;4.80;99.90;;;;;;5064666;28;20031;-73
2022/12/06 11:19:57;;;;;;;19.90;12.32;;;4.90;99.90;;;;;;5080164;28;20115;-72
2022/12/06 11:22:35;;;;;;;19.90;11.73;;;5.00;99.90;;;;;;5079961;28;20468;-73
2022/12/06 11:25:14;;;;;;;19.67;11.90;;;5.00;99.90;;;;;;5079973;28;20028;-72
2022/12/06 11:27:55;;;;;;;20.35;12.88;;;5.20;99.90;;;;;;5059397;28;20114;-73
2022/12/06 11:30:20;;;;;;;18.33;11.95;;;5.30;99.90;;;;;;5080070;28;20042;-72
2022/12/06 11:32:50;;;;;;;20.73;11.90;;;5.60;99.90;;;;;;5078786;28;20111;-73
2022/12/06 11:35:21;;;;;;;18.67;11.20;;;5.80;99.90;;;;;;5076235;28;20400;-72
2022/12/06 11:37:58;;;;;;;17.45;11.45;;;6.00;99.90;;;;;;5058582;28;20035;-73
2022/12/06 11:40:34;;;;;;;20.00;12.65;;;6.00;99.90;;;;;;5076819;28;20029;-72
2022/12/06 11:43:04;;;;;;;18.98;11.70;;;6.00;99.90;;;;;;5078316;28;20023;-72
2022/12/06 11:45:32;;;;;;;16.25;10.85;;;6.10;99.90;;;;;;5060093;28;20032;-72
2022/12/06 11:48:01;;;;;;;14.60;10.25;;;6.20;99.90;;;;;;5060527;28;20056;-72
2022/12/06 11:50:32;;;;;;;13.80;9.70;;;6.10;99.90;;;;;;5078312;28;20111;-72
2022/12/06 11:53:33;;;;;;;17.80;9.25;;;6.10;99.90;;;;;;5077482;28;20060;-72
2022/12/06 11:56:20;;;;;;;14.13;8.38;;;6.10;99.90;;;;;;5061839;28;20032;-71
2022/12/06 11:58:55;;;;;;;14.40;8.70;;;6.00;99.90;;;;;;5058321;28;20112;-71
2022/12/06 12:01:45;;;;;;;15.18;7.60;;;5.90;99.90;;;;;;5057643;28;20350;-71
2022/12/06 12:04:32;;;;;;;12.93;7.85;;;5.80;99.90;;;;;;5076067;28;20024;-71
2022/12/06 12:07:09;;;;;;;13.90;8.20;;;5.70;99.90;;;;;;5057994;28;20078;-71
2022/12/06 12:09:43;;;;;;;12.15;8.52;;;5.70;99.90;;;;;;5057754;28;20048;-71
2022/12/06 12:12:19;;;;;;;12.05;8.18;;;5.70;99.90;;;;;;5075627;28;20024;-70
2022/12/06 12:14:52;;;;;;;13.02;8.10;;;5.90;99.90;;;;;;5077138;28;20094;-70
2022/12/06 12:17:22;;;;;;;11.48;8.05;;;6.10;99.90;;;;;;5058034;28;20380;-70
2022/12/06 12:20:01;;;;;;;11.15;7.45;;;6.10;99.90;;;;;;5077881;28;20074;-71
2022/12/06 12:22:26;;;;;;;;;;;6.30;99.90;;;;;;5064073;28;20120;-72
2022/12/06 12:25:02;;;;;;;14.30;7.82;;;6.40;99.90;;;;;;5080229;28;19952;-73
2022/12/06 12:27:32;;;;;;;9.77;6.65;;;6.60;99.90;;;;;;5081363;28;20032;-71
2022/12/06 12:30:21;;;;;;;10.35;6.95;;;7.00;99.90;;;;;;5061613;28;20028;-70
2022/12/06 12:32:49;;;;;;;10.05;7.03;;;7.00;99.90;;;;;;5059479;28;20032;-70
2022/12/06 12:35:24;;;;;;;8.68;6.40;;;7.00;99.90;;;;;;5059379;28;20024;-70
2022/12/06 12:38:08;;;;;;;9.80;6.50;;;7.00;99.90;;;;;;5059107;28;20029;-69
2022/12/06 12:40:46;;;;;;;10.00;6.35;;;6.90;99.90;;;;;;5076459;28;20027;-69
2022/12/06 12:43:11;;;;;;;11.07;6.57;;;7.00;99.90;;;;;;5075604;28;20025;-72
2022/12/06 12:45:39;;;;;;;7.75;5.72;;;7.00;99.90;;;;;;5057709;28;20108;-69
2022/12/06 12:48:23;;;;;;;9.77;5.90;;;7.20;99.90;;;;;;5075139;28;20056;-69
2022/12/06 12:50:56;;;;;;;7.35;5.57;;;7.40;99.90;;;;;;5074752;28;20024;-69
2022/12/06 12:53:29;;;;;;;8.63;5.68;;;7.70;99.90;;;;;;5057215;28;20423;-69
2022/12/06 12:56:17;;;;;;;7.85;5.30;;;8.00;99.90;;;;;;5075572;28;20077;-70
2022/12/06 12:58:46;;;;;;;4.78;3.72;;;8.20;99.90;;;;;;5056920;28;20028;-69
2022/12/06 13:01:38;;;;;;;8.70;6.07;;;8.50;99.90;;;;;;5056610;28;20078;-69
2022/12/06 13:04:14;;;;;;;8.35;5.80;;;8.80;99.90;;;;;;5075007;28;20111;-70
2022/12/06 13:06:54;;;;;;;8.40;5.93;;;9.10;99.90;;;;;;5057249;28;20484;-70
2022/12/06 13:09:39;;;;;;;7.93;5.88;;;8.90;99.90;;;;;;5058956;28;20048;-70
2022/12/06 13:12:18;;;;;;;8.00;5.28;;;8.50;99.90;;;;;;5056546;28;20064;-70
2022/12/06 13:14:51;;;;;;;8.10;5.78;;;8.10;99.90;;;;;;5075313;28;20036;-71
2022/12/06 13:17:19;;;;;;;7.22;5.47;;;7.70;99.90;;;;;;5056639;28;20037;-71
2022/12/06 13:19:46;;;;;;;9.15;6.00;;;7.50;99.90;;;;;;5075855;28;20476;-70
2022/12/06 13:22:24;;;;;;;9.30;5.90;;;7.40;99.90;;;;;;5056710;28;20025;-71
2022/12/06 13:25:00;;;;;;;8.27;5.80;;;7.50;99.90;;;;;;5075279;28;20024;-71
2022/12/06 13:27:31;;;;;;;9.20;6.22;;;7.30;99.90;;;;;;5056320;28;20435;-70
2022/12/06 13:30:00;;;;;;;9.15;6.57;;;7.20;99.90;;;;;;5074332;28;20432;-71
2022/12/06 13:32:32;;;;;;;8.65;5.88;;;6.90;99.90;;;;;;5074413;28;20056;-71
2022/12/06 13:35:25;;;;;;;11.25;6.57;;;6.70;99.90;;;;;;5057061;28;20047;-71
2022/12/06 13:38:22;;;;;;;8.75;6.47;;;6.40;99.90;;;;;;5076045;28;20028;-71
2022/12/06 13:40:50;;;;;;;9.18;6.28;;;6.10;99.90;;;;;;5058175;28;20039;-71
2022/12/06 13:43:22;;;;;;;11.15;6.50;;;6.00;99.90;;;;;;5060593;28;20044;-71